Time;durP1;ratioP1;P1;durP2;ratioP2;P2;SDS_P1;SDS_P2;PMS_P1;PMS_P2;Temp;Humidity;BMP_temperature;BMP_pressure;BME280_temperature;BME280_humidity;BME280_pressure;Samples;Min_cycle;Max_cycle;Signal;HPM_P1;HPM_P2
2023/05/03 00:01:51;;;;;;;3.10;2.87;;;13.20;99.90;;;;;;6225761;28;20476;-62
2023/05/03 00:04:56;;;;;;;4.20;3.80;;;13.20;99.90;;;;;;6235103;28;20483;-62
2023/05/03 00:08:01;;;;;;;4.53;4.13;;;13.20;99.90;;;;;;6241850;28;20486;-62
2023/05/03 00:11:04;;;;;;;8.43;4.63;;;13.10;99.90;;;;;;6233205;28;20490;-62
2023/05/03 00:14:07;;;;;;;4.87;4.40;;;13.10;99.90;;;;;;6236067;28;20967;-62
2023/05/03 00:17:10;;;;;;;5.07;4.57;;;13.10;99.90;;;;;;6234366;28;20474;-62
2023/05/03 00:20:14;;;;;;;4.43;4.03;;;13.10;99.90;;;;;;6250463;28;20471;-62
2023/05/03 00:23:18;;;;;;;5.73;4.13;;;13.10;99.90;;;;;;6250069;28;20506;-62
2023/05/03 00:26:22;;;;;;;6.60;4.93;;;13.10;99.90;;;;;;6250346;28;20487;-62
2023/05/03 00:29:25;;;;;;;5.47;4.97;;;13.00;99.90;;;;;;6235492;28;20476;-62
2023/05/03 00:32:28;;;;;;;4.97;4.50;;;12.90;99.90;;;;;;6236254;28;20478;-62
2023/05/03 00:35:31;;;;;;;4.07;3.77;;;12.90;99.90;;;;;;6235974;28;20471;-62
2023/05/03 00:38:35;;;;;;;5.67;5.17;;;13.00;99.90;;;;;;6238287;28;20795;-62
2023/05/03 00:41:39;;;;;;;4.37;3.97;;;13.00;99.90;;;;;;6236673;28;20821;-62
2023/05/03 00:44:42;;;;;;;4.73;4.23;;;13.00;99.90;;;;;;6235935;28;20847;-62
2023/05/03 00:47:46;;;;;;;6.33;5.90;;;13.10;99.90;;;;;;6233675;28;20480;-62
2023/05/03 00:50:49;;;;;;;5.37;4.87;;;13.20;99.90;;;;;;6238212;28;20478;-62
2023/05/03 00:53:54;;;;;;;6.20;4.57;;;13.10;99.90;;;;;;6237951;28;20538;-62
2023/05/03 00:56:57;;;;;;;5.43;4.93;;;13.20;99.90;;;;;;6236126;28;20486;-61
2023/05/03 01:00:00;;;;;;;4.70;4.30;;;13.20;99.90;;;;;;6226018;28;20474;-61
2023/05/03 01:03:04;;;;;;;4.73;4.30;;;13.20;99.90;;;;;;6224813;28;20570;-62
2023/05/03 01:06:15;;;;;;;5.00;4.50;;;13.20;99.90;;;;;;6225216;28;20545;-61
2023/05/03 01:09:25;;;;;;;6.00;4.50;;;13.30;99.90;;;;;;6224753;28;20457;-61
2023/05/03 01:12:42;;;;;;;4.90;4.50;;;13.20;99.90;;;;;;6225200;28;20471;-61
2023/05/03 01:15:53;;;;;;;5.17;4.77;;;13.30;99.90;;;;;;6224161;28;20487;-61
2023/05/03 01:19:01;;;;;;;5.00;4.60;;;13.30;99.90;;;;;;6224728;28;20482;-62
2023/05/03 01:22:15;;;;;;;4.70;4.30;;;13.30;99.90;;;;;;6224339;28;20480;-62
2023/05/03 01:25:20;;;;;;;5.20;4.50;;;13.30;99.90;;;;;;6224196;28;20476;-62
2023/05/03 01:28:23;;;;;;;4.37;3.97;;;13.30;99.90;;;;;;6224554;28;20831;-62
2023/05/03 01:31:32;;;;;;;5.47;4.27;;;13.30;99.90;;;;;;6239179;28;20486;-62
2023/05/03 01:34:53;;;;;;;4.40;4.10;;;13.30;99.90;;;;;;6239893;28;20554;-61
2023/05/03 01:37:57;;;;;;;5.00;4.50;;;13.30;99.90;;;;;;6241611;28;20487;-61
2023/05/03 01:41:06;;;;;;;4.53;4.10;;;13.30;99.90;;;;;;6236743;28;20482;-61
2023/05/03 01:44:11;;;;;;;4.47;4.10;;;13.30;99.90;;;;;;6238271;28;20468;-62
2023/05/03 01:47:14;;;;;;;4.73;4.30;;;13.30;99.90;;;;;;6240389;28;20753;-62
2023/05/03 01:50:18;;;;;;;3.93;3.63;;;13.20;99.90;;;;;;6239573;28;20943;-61
2023/05/03 01:53:21;;;;;;;5.23;4.50;;;13.30;99.90;;;;;;6239116;28;20471;-61
2023/05/03 01:56:25;;;;;;;4.53;4.23;;;13.30;99.90;;;;;;6244932;28;20473;-61
2023/05/03 01:59:29;;;;;;;3.80;3.50;;;13.20;99.90;;;;;;6253232;28;20486;-61
2023/05/03 02:02:32;;;;;;;3.73;3.43;;;13.20;99.90;;;;;;6253344;28;20482;-61
2023/05/03 02:05:35;;;;;;;4.17;3.77;;;13.20;99.90;;;;;;6253036;28;21021;-61
2023/05/03 02:08:38;;;;;;;5.80;4.27;;;13.20;99.90;;;;;;6252995;28;20482;-61
2023/05/03 02:11:42;;;;;;;3.87;3.57;;;13.20;99.90;;;;;;6253214;28;20485;-61
2023/05/03 02:14:46;;;;;;;3.90;3.60;;;13.20;99.90;;;;;;6253324;28;20756;-61
2023/05/03 02:17:49;;;;;;;4.80;3.30;;;13.20;99.90;;;;;;6253003;28;20474;-62
2023/05/03 02:20:52;;;;;;;4.80;3.77;;;13.20;99.90;;;;;;6243911;28;20524;-61
2023/05/03 02:23:55;;;;;;;3.30;2.83;;;13.20;99.90;;;;;;6253082;28;20481;-61
2023/05/03 02:27:03;;;;;;;4.50;4.10;;;13.20;99.90;;;;;;6252799;28;20486;-62
2023/05/03 02:30:07;;;;;;;4.27;3.87;;;13.10;99.90;;;;;;6252227;28;20490;-62
2023/05/03 02:33:10;;;;;;;3.73;3.40;;;13.20;99.90;;;;;;6252110;28;20435;-62
2023/05/03 02:36:14;;;;;;;6.20;4.23;;;13.20;99.90;;;;;;6251777;28;20957;-62
2023/05/03 02:39:17;;;;;;;4.03;3.73;;;13.10;99.90;;;;;;6252226;28;20439;-62
2023/05/03 02:42:21;;;;;;;4.13;3.83;;;13.10;99.90;;;;;;6252275;28;20764;-62
2023/05/03 02:45:25;;;;;;;3.43;3.13;;;13.10;99.90;;;;;;6252111;28;20471;-62
2023/05/03 02:48:28;;;;;;;3.63;3.33;;;13.10;99.90;;;;;;6252749;28;20458;-62
2023/05/03 02:51:31;;;;;;;3.20;3.00;;;13.10;99.90;;;;;;6252477;28;20465;-62
2023/05/03 02:54:34;;;;;;;3.13;2.83;;;13.10;99.90;;;;;;6252357;28;20482;-61
2023/05/03 02:57:39;;;;;;;4.03;3.23;;;13.10;99.90;;;;;;6252149;28;20463;-62
2023/05/03 03:00:44;;;;;;;4.87;3.80;;;13.00;99.90;;;;;;6252384;28;20525;-62
2023/05/03 03:03:49;;;;;;;4.33;3.37;;;13.00;99.90;;;;;;6252240;28;20478;-61
2023/05/03 03:06:52;;;;;;;3.57;3.37;;;13.00;99.90;;;;;;6252157;28;20482;-61
2023/05/03 03:09:55;;;;;;;3.50;3.20;;;13.00;99.90;;;;;;6251729;28;20815;-62
2023/05/03 03:13:00;;;;;;;2.80;2.60;;;13.00;99.90;;;;;;6251789;28;20474;-62
2023/05/03 03:16:03;;;;;;;3.10;2.90;;;13.00;99.90;;;;;;6251516;28;20482;-62
2023/05/03 03:19:07;;;;;;;2.90;2.70;;;13.00;99.90;;;;;;6251296;28;20482;-62
2023/05/03 03:22:10;;;;;;;3.07;2.87;;;13.00;99.90;;;;;;6247531;28;20498;-62
2023/05/03 03:25:14;;;;;;;2.43;2.23;;;12.90;99.90;;;;;;6251318;28;20494;-61
2023/05/03 03:28:19;;;;;;;2.63;2.43;;;13.00;99.90;;;;;;6251577;28;20776;-61
2023/05/03 03:31:24;;;;;;;3.70;2.67;;;13.00;99.90;;;;;;6250036;28;20467;-61
2023/05/03 03:34:27;;;;;;;2.60;2.40;;;13.00;99.90;;;;;;6250289;28;20471;-62
2023/05/03 03:37:30;;;;;;;2.53;2.37;;;12.90;99.90;;;;;;6249812;28;20483;-62
2023/05/03 03:40:33;;;;;;;2.77;2.57;;;13.00;99.90;;;;;;6249986;28;20479;-62
2023/05/03 03:43:38;;;;;;;3.30;3.00;;;13.00;99.90;;;;;;6249793;28;20494;-62
2023/05/03 03:46:41;;;;;;;2.83;2.63;;;13.10;99.90;;;;;;6249753;28;20497;-62
2023/05/03 03:49:44;;;;;;;2.90;2.70;;;13.10;99.90;;;;;;6249813;28;20478;-62
2023/05/03 03:52:48;;;;;;;3.33;2.27;;;13.10;99.90;;;;;;6249191;28;20467;-61
2023/05/03 03:55:51;;;;;;;2.23;2.03;;;13.00;99.90;;;;;;6249819;28;20490;-61
2023/05/03 03:58:56;;;;;;;3.23;2.93;;;13.10;99.90;;;;;;6249744;28;20479;-61
2023/05/03 04:01:59;;;;;;;2.63;2.43;;;13.00;99.90;;;;;;6249650;28;20541;-61
2023/05/03 04:05:02;;;;;;;2.07;1.97;;;13.10;99.90;;;;;;6249458;28;20483;-62
2023/05/03 04:08:06;;;;;;;3.70;2.20;;;13.10;99.90;;;;;;6249464;28;20499;-62
2023/05/03 04:11:11;;;;;;;2.47;2.30;;;13.10;99.90;;;;;;6249406;28;20478;-62
2023/05/03 04:14:15;;;;;;;2.73;2.30;;;13.10;99.90;;;;;;6249392;28;20475;-61
2023/05/03 04:17:18;;;;;;;3.00;2.70;;;13.20;99.90;;;;;;6249116;28;20475;-61
2023/05/03 04:20:22;;;;;;;2.43;2.23;;;13.10;99.90;;;;;;6249040;28;20533;-61
2023/05/03 04:23:25;;;;;;;3.07;2.87;;;13.20;99.90;;;;;;6248899;28;20893;-62
2023/05/03 04:26:29;;;;;;;4.07;2.70;;;13.20;99.90;;;;;;6248933;28;20975;-62
2023/05/03 04:29:37;;;;;;;3.47;2.87;;;13.20;99.90;;;;;;6210986;28;1107008;-62
2023/05/03 04:32:41;;;;;;;2.80;2.60;;;13.20;99.90;;;;;;6250329;28;20224;-62
2023/05/03 04:35:44;;;;;;;2.93;2.70;;;13.20;99.90;;;;;;6249961;28;20475;-62
2023/05/03 04:38:47;;;;;;;2.70;2.50;;;13.30;99.90;;;;;;6249720;28;20478;-61
2023/05/03 04:41:51;;;;;;;3.20;2.90;;;13.30;99.90;;;;;;6250253;28;20471;-62
2023/05/03 04:44:55;;;;;;;3.40;3.10;;;13.30;99.90;;;;;;6249757;28;20779;-61
2023/05/03 04:47:58;;;;;;;2.50;2.40;;;13.40;99.90;;;;;;6249926;28;20486;-62
2023/05/03 04:51:01;;;;;;;2.50;2.30;;;13.40;99.90;;;;;;6249519;28;20490;-61
2023/05/03 04:54:05;;;;;;;4.90;3.47;;;13.40;99.90;;;;;;6249618;28;20487;-61
2023/05/03 04:57:09;;;;;;;4.10;2.97;;;13.50;99.90;;;;;;6224788;28;20456;-60
2023/05/03 05:00:15;;;;;;;3.20;3.00;;;13.50;99.90;;;;;;6249794;28;20439;-62
2023/05/03 05:03:18;;;;;;;3.70;3.40;;;13.50;99.90;;;;;;6249496;28;20530;-61
2023/05/03 05:06:21;;;;;;;3.33;3.03;;;13.60;99.90;;;;;;6249459;28;20792;-61
2023/05/03 05:09:26;;;;;;;2.63;2.43;;;13.60;99.90;;;;;;6249347;28;20533;-62
2023/05/03 05:12:30;;;;;;;3.50;3.20;;;13.70;99.90;;;;;;6249165;28;20459;-62
2023/05/03 05:15:34;;;;;;;3.70;3.40;;;13.70;99.90;;;;;;6249436;28;20791;-61
2023/05/03 05:18:37;;;;;;;3.67;3.37;;;13.80;99.90;;;;;;6249467;28;20475;-62
2023/05/03 05:21:40;;;;;;;3.30;2.97;;;13.80;99.90;;;;;;6249213;28;20938;-61
2023/05/03 05:24:44;;;;;;;5.27;3.53;;;13.80;99.90;;;;;;6249078;28;20957;-62
2023/05/03 05:27:47;;;;;;;3.80;3.50;;;13.80;99.90;;;;;;6249367;28;20486;-61
2023/05/03 05:30:51;;;;;;;3.77;3.40;;;13.90;99.90;;;;;;6239129;28;20475;-60
2023/05/03 05:33:54;;;;;;;3.93;3.40;;;14.00;99.90;;;;;;6228356;28;20475;-60
2023/05/03 05:36:58;;;;;;;5.00;3.60;;;14.10;99.90;;;;;;6224804;28;20491;-61
2023/05/03 05:40:01;;;;;;;4.17;3.37;;;14.20;99.90;;;;;;6224203;28;21007;-61
2023/05/03 05:43:05;;;;;;;3.17;2.97;;;14.30;99.90;;;;;;6224385;28;20475;-61
2023/05/03 05:46:09;;;;;;;3.80;3.47;;;14.30;99.90;;;;;;6224507;28;20485;-62
2023/05/03 05:49:13;;;;;;;3.63;2.90;;;14.40;99.90;;;;;;6224703;28;20467;-61
2023/05/03 05:52:16;;;;;;;3.63;3.00;;;14.60;99.90;;;;;;6224569;28;20476;-61
2023/05/03 05:55:19;;;;;;;7.00;2.80;;;14.70;99.90;;;;;;6223866;28;20794;-61
2023/05/03 05:58:23;;;;;;;3.37;3.13;;;14.90;99.90;;;;;;6224528;28;20513;-61
2023/05/03 06:01:27;;;;;;;5.57;3.77;;;15.00;99.90;;;;;;6224203;28;20911;-61
2023/05/03 06:04:30;;;;;;;5.70;3.53;;;15.10;99.90;;;;;;6224098;28;20490;-61
2023/05/03 06:07:33;;;;;;;3.63;3.30;;;15.20;99.90;;;;;;6224255;28;20598;-61
2023/05/03 06:10:37;;;;;;;4.13;3.60;;;15.40;99.90;;;;;;6224163;28;20495;-61
2023/05/03 06:13:40;;;;;;;4.13;3.30;;;15.60;99.90;;;;;;6224020;28;20487;-61
2023/05/03 06:16:45;;;;;;;3.47;3.17;;;15.70;99.90;;;;;;6227097;28;20487;-62
2023/05/03 06:19:48;;;;;;;3.57;3.27;;;15.90;99.90;;;;;;6228747;28;20510;-62
2023/05/03 06:22:51;;;;;;;6.70;3.67;;;16.10;99.90;;;;;;6228483;28;20478;-61
2023/05/03 06:25:54;;;;;;;4.53;3.50;;;16.20;99.90;;;;;;6227845;28;20960;-61
2023/05/03 06:28:59;;;;;;;3.70;3.40;;;16.30;99.90;;;;;;6227655;28;20494;-61
2023/05/03 06:32:04;;;;;;;3.50;3.20;;;16.40;99.90;;;;;;6228362;28;20472;-61
2023/05/03 06:35:08;;;;;;;5.63;3.30;;;16.60;99.90;;;;;;6223193;28;20471;-61
2023/05/03 06:38:11;;;;;;;3.27;2.97;;;16.70;99.40;;;;;;6227539;28;20479;-61
2023/05/03 06:41:15;;;;;;;3.97;3.57;;;16.90;99.20;;;;;;6227670;28;20464;-63
2023/05/03 06:44:18;;;;;;;4.10;3.80;;;17.10;99.00;;;;;;6227732;28;20483;-62
2023/05/03 06:47:22;;;;;;;3.53;3.27;;;17.20;97.70;;;;;;6227913;28;20483;-62
2023/05/03 06:50:25;;;;;;;7.57;4.30;;;17.40;97.20;;;;;;6227641;28;20967;-62
2023/05/03 06:53:28;;;;;;;6.07;5.53;;;17.50;97.50;;;;;;6227906;28;20547;-62
2023/05/03 06:56:33;;;;;;;6.13;3.70;;;17.70;97.00;;;;;;6226977;28;20487;-62
2023/05/03 06:59:36;;;;;;;3.53;3.23;;;17.80;95.50;;;;;;6227344;28;20464;-63
2023/05/03 07:02:41;;;;;;;3.93;3.50;;;18.00;95.60;;;;;;6227228;28;20468;-63
2023/05/03 07:05:45;;;;;;;6.47;3.50;;;18.00;95.70;;;;;;6227357;28;20233;-63
2023/05/03 07:08:48;;;;;;;6.10;4.17;;;18.00;94.60;;;;;;6226950;28;20286;-63
2023/05/03 07:11:51;;;;;;;4.07;3.70;;;18.00;94.70;;;;;;6227765;28;20229;-63
2023/05/03 07:14:55;;;;;;;3.57;3.27;;;18.10;94.30;;;;;;6227032;28;20245;-63
2023/05/03 07:17:59;;;;;;;4.97;4.23;;;18.40;94.00;;;;;;6227337;28;20676;-63
2023/05/03 07:21:04;;;;;;;4.20;3.80;;;18.90;93.50;;;;;;6225199;28;20609;-63
2023/05/03 07:24:11;;;;;;;4.10;3.80;;;19.20;93.00;;;;;;6225671;28;20220;-63
2023/05/03 07:27:14;;;;;;;4.73;4.33;;;19.20;91.40;;;;;;6224451;28;20516;-60
2023/05/03 07:30:18;;;;;;;4.30;3.90;;;19.40;91.70;;;;;;6225230;28;20240;-62
2023/05/03 07:33:23;;;;;;;4.40;4.00;;;19.80;90.70;;;;;;6231731;28;20630;-62
2023/05/03 07:36:26;;;;;;;5.17;4.40;;;20.50;89.50;;;;;;6232395;28;20322;-62
2023/05/03 07:39:29;;;;;;;4.97;4.57;;;21.00;86.20;;;;;;6226953;28;20282;-63
2023/05/03 07:42:33;;;;;;;4.90;4.40;;;21.10;85.00;;;;;;6225929;28;20738;-63
2023/05/03 07:45:36;;;;;;;5.50;4.70;;;21.60;82.50;;;;;;6225929;28;20244;-63
2023/05/03 07:48:41;;;;;;;5.47;4.67;;;22.10;81.40;;;;;;6225995;28;20267;-63
2023/05/03 07:51:44;;;;;;;4.77;4.37;;;22.60;77.20;;;;;;6226880;28;20233;-63
2023/05/03 07:54:47;;;;;;;5.53;4.80;;;22.60;74.70;;;;;;6226254;28;20232;-63
2023/05/03 07:57:50;;;;;;;4.90;4.50;;;22.50;75.80;;;;;;6226475;28;20221;-63
2023/05/03 08:00:54;;;;;;;6.40;5.00;;;22.50;74.70;;;;;;6226286;28;20243;-62
2023/05/03 08:03:58;;;;;;;4.97;4.20;;;22.70;73.20;;;;;;6226694;28;20251;-62
2023/05/03 08:07:03;;;;;;;9.60;8.80;;;22.90;73.60;;;;;;6226386;28;20233;-62
2023/05/03 08:10:07;;;;;;;5.10;4.60;;;22.90;71.70;;;;;;6225736;28;20531;-62
2023/05/03 08:13:10;;;;;;;8.20;5.60;;;22.70;70.50;;;;;;6225215;28;20680;-62
2023/05/03 08:16:15;;;;;;;5.50;5.10;;;22.10;70.80;;;;;;6226021;28;20233;-62
2023/05/03 08:19:19;;;;;;;5.53;5.13;;;21.70;72.30;;;;;;6226045;28;20228;-63
2023/05/03 08:22:25;;;;;;;5.03;4.63;;;21.90;71.00;;;;;;6225666;28;20247;-63
2023/05/03 08:25:29;;;;;;;6.03;4.87;;;22.40;71.60;;;;;;6225318;28;20237;-63
2023/05/03 08:28:32;;;;;;;4.40;4.10;;;22.50;71.00;;;;;;6225265;28;20703;-61
2023/05/03 08:31:35;;;;;;;5.13;4.63;;;22.40;71.50;;;;;;6224750;28;20244;-61
2023/05/03 08:34:40;;;;;;;6.00;4.57;;;22.30;71.00;;;;;;6225318;28;20609;-61
2023/05/03 08:37:44;;;;;;;5.10;4.70;;;21.90;71.50;;;;;;6225495;28;20673;-61
2023/05/03 08:40:51;;;;;;;4.77;4.33;;;21.80;72.70;;;;;;6225691;28;20228;-61
2023/05/03 08:43:55;;;;;;;5.17;4.73;;;21.60;70.40;;;;;;6216898;28;20240;-62
2023/05/03 08:46:59;;;;;;;4.97;4.57;;;21.50;70.50;;;;;;6225378;28;20248;-62
2023/05/03 08:50:06;;;;;;;5.60;5.20;;;21.50;71.00;;;;;;6225234;28;20240;-62
2023/05/03 08:53:09;;;;;;;4.80;4.40;;;21.70;71.40;;;;;;6225196;28;20527;-62
2023/05/03 08:56:20;;;;;;;5.57;5.17;;;21.90;68.30;;;;;;6225067;28;20237;-62
2023/05/03 08:59:24;;;;;;;5.10;4.70;;;22.20;65.70;;;;;;6226320;28;20236;-61
2023/05/03 09:02:28;;;;;;;5.30;4.40;;;22.20;66.50;;;;;;6246024;28;20224;-61
2023/05/03 09:05:37;;;;;;;4.47;4.17;;;22.00;64.20;;;;;;6248896;28;20234;-61
2023/05/03 09:08:43;;;;;;;4.83;4.50;;;21.80;63.90;;;;;;6249284;28;20270;-61
2023/05/03 09:11:46;;;;;;;4.63;4.17;;;21.10;66.10;;;;;;6244491;28;20236;-63
2023/05/03 09:14:49;;;;;;;5.10;4.70;;;21.10;65.40;;;;;;6240071;28;20286;-63
2023/05/03 09:18:07;;;;;;;5.93;5.43;;;21.20;64.70;;;;;;6235779;28;20228;-63
2023/05/03 09:21:19;;;;;;;5.47;5.07;;;20.90;63.50;;;;;;6249311;28;20221;-61
2023/05/03 09:24:22;;;;;;;5.03;4.63;;;20.80;65.80;;;;;;6248138;28;20538;-62
2023/05/03 09:27:26;;;;;;;5.07;4.57;;;20.70;65.00;;;;;;6249611;28;20208;-61
2023/05/03 09:30:30;;;;;;;5.40;4.90;;;20.40;64.80;;;;;;6248875;28;20231;-61
2023/05/03 09:33:33;;;;;;;5.17;4.77;;;20.50;65.90;;;;;;6249122;28;20246;-62
2023/05/03 09:36:47;;;;;;;4.63;4.33;;;20.70;64.70;;;;;;6248572;28;20668;-61
2023/05/03 09:40:07;;;;;;;6.97;6.37;;;20.80;65.00;;;;;;6249080;28;20236;-62
2023/05/03 09:43:13;;;;;;;5.30;4.90;;;20.90;64.30;;;;;;6248303;28;20228;-61
2023/05/03 09:46:16;;;;;;;5.63;4.83;;;20.90;64.30;;;;;;6239506;28;20232;-62
2023/05/03 09:49:19;;;;;;;5.53;5.03;;;20.90;63.10;;;;;;6248966;28;20286;-62
2023/05/03 09:52:25;;;;;;;4.93;4.63;;;20.80;61.60;;;;;;6253305;28;20232;-63
2023/05/03 09:55:31;;;;;;;4.80;4.50;;;20.60;61.50;;;;;;6247961;28;20231;-62
2023/05/03 09:58:35;;;;;;;4.80;4.40;;;20.70;62.60;;;;;;6246769;28;20225;-62
2023/05/03 10:01:39;;;;;;;5.40;4.90;;;21.00;61.10;;;;;;6243442;28;20231;-62
2023/05/03 10:04:47;;;;;;;5.03;4.67;;;21.30;60.60;;;;;;6240964;28;20239;-62
2023/05/03 10:07:55;;;;;;;4.83;4.43;;;21.30;59.80;;;;;;6228625;28;20229;-63
2023/05/03 10:10:58;;;;;;;5.30;4.80;;;21.20;60.20;;;;;;6228759;28;20295;-63
2023/05/03 10:14:04;;;;;;;4.20;3.90;;;21.20;60.60;;;;;;6228220;28;20240;-63
2023/05/03 10:17:12;;;;;;;5.70;5.20;;;21.10;60.20;;;;;;6228418;28;20229;-63
2023/05/03 10:20:21;;;;;;;5.00;4.60;;;21.00;60.30;;;;;;6228154;28;20256;-63
2023/05/03 10:23:26;;;;;;;6.10;4.60;;;20.90;60.60;;;;;;6228771;28;20225;-63
2023/05/03 10:26:29;;;;;;;5.57;5.00;;;20.70;60.60;;;;;;6228101;28;20338;-63
2023/05/03 10:29:47;;;;;;;4.07;3.77;;;20.50;60.10;;;;;;6227929;28;20255;-61
2023/05/03 10:32:51;;;;;;;4.70;4.30;;;20.50;62.00;;;;;;6243880;28;20649;-61
2023/05/03 10:35:55;;;;;;;4.70;4.30;;;20.40;60.80;;;;;;6238177;28;20307;-61
2023/05/03 10:38:59;;;;;;;4.40;4.10;;;20.40;61.80;;;;;;6237422;28;20232;-61
2023/05/03 10:42:05;;;;;;;6.13;4.47;;;20.50;62.40;;;;;;6241792;28;20225;-61
2023/05/03 10:45:11;;;;;;;5.17;4.67;;;20.60;61.40;;;;;;6246401;28;20233;-61
2023/05/03 10:48:21;;;;;;;4.90;4.50;;;20.70;61.30;;;;;;6240043;28;20295;-61
2023/05/03 10:51:35;;;;;;;4.33;4.03;;;20.80;61.70;;;;;;6252681;28;20243;-62
2023/05/03 10:54:40;;;;;;;4.80;4.40;;;20.90;61.90;;;;;;6251999;28;20242;-63
2023/05/03 10:57:45;;;;;;;5.23;4.80;;;20.90;64.00;;;;;;6252111;28;20668;-62
2023/05/03 11:00:51;;;;;;;4.33;4.03;;;20.90;63.50;;;;;;6252093;28;20327;-62
2023/05/03 11:04:02;;;;;;;5.50;5.00;;;21.10;62.20;;;;;;6252117;28;20228;-62
2023/05/03 11:07:05;;;;;;;4.50;4.10;;;21.20;61.10;;;;;;6252042;28;20236;-63
2023/05/03 11:10:28;;;;;;;4.57;4.20;;;21.30;59.70;;;;;;6251617;28;20255;-63
2023/05/03 11:13:31;;;;;;;5.93;5.33;;;21.30;59.60;;;;;;6250938;28;20301;-63
2023/05/03 11:16:35;;;;;;;6.37;5.00;;;21.30;59.30;;;;;;6250845;28;20551;-63
2023/05/03 11:19:38;;;;;;;5.60;5.10;;;21.20;59.20;;;;;;6251567;28;20228;-63
2023/05/03 11:22:45;;;;;;;11.00;6.70;;;21.20;59.20;;;;;;6251364;28;20443;-62
2023/05/03 11:25:52;;;;;;;7.33;6.63;;;20.60;64.00;;;;;;6251522;28;20240;-62
2023/05/03 11:28:55;;;;;;;6.23;5.83;;;20.20;66.20;;;;;;6251586;28;20651;-62
2023/05/03 11:31:58;;;;;;;7.63;6.90;;;19.90;67.20;;;;;;6251066;28;20243;-62
2023/05/03 11:35:04;;;;;;;7.47;6.00;;;19.80;69.20;;;;;;6250918;28;20235;-63
2023/05/03 11:38:08;;;;;;;8.27;7.47;;;19.80;70.20;;;;;;6251216;28;20228;-64
2023/05/03 11:41:15;;;;;;;10.87;8.10;;;19.90;70.70;;;;;;6250816;28;20232;-62
2023/05/03 11:44:18;;;;;;;7.77;7.07;;;19.90;71.00;;;;;;6250912;28;20228;-62
2023/05/03 11:47:21;;;;;;;8.40;7.70;;;20.10;70.10;;;;;;6250774;28;20235;-61
2023/05/03 11:50:43;;;;;;;8.93;8.23;;;20.30;70.50;;;;;;6250526;28;20626;-61
2023/05/03 11:53:47;;;;;;;8.90;8.10;;;20.50;70.30;;;;;;6245909;28;20570;-61
2023/05/03 11:56:56;;;;;;;8.83;8.13;;;20.10;70.40;;;;;;6250293;28;20585;-61
2023/05/03 12:00:13;;;;;;;7.00;6.30;;;19.90;71.00;;;;;;6250521;28;20314;-61
2023/05/03 12:03:20;;;;;;;8.10;7.40;;;20.10;71.40;;;;;;6226288;28;20209;-61
2023/05/03 12:06:27;;;;;;;7.67;7.07;;;20.40;70.80;;;;;;6225845;28;20237;-61
2023/05/03 12:09:31;;;;;;;7.53;6.87;;;20.40;69.80;;;;;;6238787;28;20354;-61
2023/05/03 12:12:36;;;;;;;7.23;6.63;;;20.40;69.40;;;;;;6250013;28;20250;-61
2023/05/03 12:15:45;;;;;;;7.80;7.20;;;20.30;69.30;;;;;;6250730;28;20237;-61
2023/05/03 12:19:02;;;;;;;7.97;7.27;;;20.10;70.10;;;;;;6255839;28;20236;-61
2023/05/03 12:22:19;;;;;;;7.33;6.73;;;19.80;70.60;;;;;;6252059;28;20242;-61
2023/05/03 12:25:28;;;;;;;7.03;6.50;;;19.90;71.60;;;;;;6248907;28;20673;-61
2023/05/03 12:28:37;;;;;;;6.60;6.07;;;20.10;71.40;;;;;;6247547;28;20216;-61
2023/05/03 12:31:41;;;;;;;8.50;5.87;;;20.00;70.60;;;;;;6249451;28;20673;-61
2023/05/03 12:34:46;;;;;;;7.43;6.37;;;20.00;70.60;;;;;;6249681;28;20228;-61
2023/05/03 12:37:51;;;;;;;7.37;6.67;;;19.80;70.80;;;;;;6249642;28;20252;-61
2023/05/03 12:40:58;;;;;;;10.10;9.17;;;19.70;70.80;;;;;;6249757;28;20290;-61
2023/05/03 12:44:03;;;;;;;8.00;7.40;;;19.50;71.40;;;;;;6249055;28;20235;-62
2023/05/03 12:47:06;;;;;;;8.97;8.20;;;19.40;72.60;;;;;;6249327;28;20228;-61
2023/05/03 12:50:12;;;;;;;10.07;9.17;;;19.30;73.10;;;;;;6248994;28;20327;-61
2023/05/03 12:53:21;;;;;;;9.37;8.57;;;19.10;73.50;;;;;;6249499;28;20228;-62
2023/05/03 12:56:28;;;;;;;9.10;7.77;;;19.00;77.00;;;;;;6249128;28;20346;-61
2023/05/03 12:59:36;;;;;;;9.80;9.03;;;18.90;80.40;;;;;;6249548;28;20259;-61
2023/05/03 13:02:44;;;;;;;9.67;8.83;;;18.80;81.80;;;;;;6249470;28;20224;-61
2023/05/03 13:05:50;;;;;;;9.87;8.93;;;18.80;82.90;;;;;;6249509;28;20228;-61
2023/05/03 13:08:55;;;;;;;10.10;9.30;;;18.70;83.80;;;;;;6249344;28;20238;-61
2023/05/03 13:12:05;;;;;;;10.47;9.20;;;18.70;85.60;;;;;;6249301;28;20232;-62
2023/05/03 13:15:10;;;;;;;12.90;11.70;;;18.60;86.40;;;;;;6248633;28;20236;-63
2023/05/03 13:18:13;;;;;;;11.07;9.93;;;18.50;87.30;;;;;;6249029;28;20606;-62
2023/05/03 13:21:16;;;;;;;11.47;9.47;;;18.50;88.30;;;;;;6249065;28;20207;-62
2023/05/03 13:24:20;;;;;;;9.57;8.77;;;18.50;87.90;;;;;;6248880;28;20200;-62
2023/05/03 13:27:23;;;;;;;9.27;8.57;;;18.50;87.40;;;;;;6241430;28;20517;-61
2023/05/03 13:30:28;;;;;;;8.93;8.23;;;18.50;86.90;;;;;;6229302;28;20251;-61
2023/05/03 13:33:31;;;;;;;10.63;9.73;;;18.60;87.60;;;;;;6229606;28;20247;-62
2023/05/03 13:36:34;;;;;;;10.13;9.33;;;18.60;89.20;;;;;;6252003;28;20232;-62
2023/05/03 13:39:37;;;;;;;10.50;9.50;;;18.60;90.40;;;;;;6254006;28;20238;-62
2023/05/03 13:42:40;;;;;;;10.70;9.80;;;18.50;90.20;;;;;;6253531;28;20228;-61
2023/05/03 13:45:45;;;;;;;10.10;9.20;;;18.60;90.50;;;;;;6253649;28;20294;-62
2023/05/03 13:48:48;;;;;;;11.03;10.13;;;18.50;91.20;;;;;;6253497;28;20509;-61
2023/05/03 13:51:51;;;;;;;10.87;9.87;;;18.60;91.40;;;;;;6253713;28;20224;-61
2023/05/03 13:54:56;;;;;;;9.87;8.97;;;18.60;91.50;;;;;;6253011;28;20236;-61
2023/05/03 13:57:59;;;;;;;10.13;9.30;;;18.70;91.00;;;;;;6253058;28;20703;-61
2023/05/03 14:01:04;;;;;;;10.63;9.73;;;18.60;91.30;;;;;;6243124;28;20234;-61
2023/05/03 14:04:08;;;;;;;9.70;8.73;;;18.60;90.60;;;;;;6252487;28;20233;-61
2023/05/03 14:07:12;;;;;;;12.10;10.13;;;18.50;90.20;;;;;;6245097;28;20227;-62
2023/05/03 14:10:15;;;;;;;9.40;8.70;;;18.40;89.60;;;;;;6240436;28;20232;-63
2023/05/03 14:13:18;;;;;;;9.97;9.17;;;18.30;90.10;;;;;;6238723;28;20304;-63
2023/05/03 14:16:25;;;;;;;15.50;11.30;;;18.10;89.50;;;;;;6240294;28;20567;-63
2023/05/03 14:19:33;;;;;;;11.43;10.43;;;18.00;90.20;;;;;;6228579;28;20240;-62
2023/05/03 14:22:36;;;;;;;10.40;9.53;;;17.70;90.30;;;;;;6244963;28;20474;-62
2023/05/03 14:25:40;;;;;;;11.53;10.33;;;17.60;91.30;;;;;;6253091;28;20471;-62
2023/05/03 14:28:43;;;;;;;12.00;11.00;;;17.60;91.80;;;;;;6248967;28;20471;-61
2023/05/03 14:31:47;;;;;;;11.67;10.67;;;17.40;93.00;;;;;;6252799;28;20810;-63
2023/05/03 14:34:51;;;;;;;11.90;10.90;;;17.30;93.50;;;;;;6252877;28;20564;-63
2023/05/03 14:37:54;;;;;;;11.23;10.17;;;17.20;93.90;;;;;;6252217;28;20474;-63
2023/05/03 14:40:57;;;;;;;12.10;11.10;;;17.10;94.40;;;;;;6253392;28;20493;-62
2023/05/03 14:44:00;;;;;;;12.03;11.03;;;17.10;94.50;;;;;;6264053;28;20478;-63
2023/05/03 14:47:08;;;;;;;15.30;12.00;;;17.10;94.80;;;;;;6257828;28;20842;-61
2023/05/03 14:50:11;;;;;;;15.10;13.60;;;17.10;95.20;;;;;;6252797;28;20870;-62
2023/05/03 14:53:15;;;;;;;14.10;12.80;;;17.10;95.60;;;;;;6252398;28;20780;-62
2023/05/03 14:56:18;;;;;;;13.57;12.23;;;17.00;95.90;;;;;;6252583;28;20975;-65
2023/05/03 14:59:21;;;;;;;20.97;19.07;;;17.00;96.10;;;;;;6252410;28;20982;-63
2023/05/03 15:02:25;;;;;;;14.57;13.30;;;16.90;95.90;;;;;;6251769;28;20975;-64
2023/05/03 15:05:30;;;;;;;12.47;11.50;;;17.00;96.20;;;;;;6247408;28;20467;-62
2023/05/03 15:08:33;;;;;;;14.60;13.30;;;17.00;96.40;;;;;;6252030;28;20482;-65
2023/05/03 15:11:37;;;;;;;13.27;12.07;;;17.00;96.50;;;;;;6252008;28;20901;-65
2023/05/03 15:14:40;;;;;;;12.73;11.70;;;17.10;96.70;;;;;;6251855;28;20501;-63
2023/05/03 15:17:45;;;;;;;12.77;11.67;;;17.00;96.50;;;;;;6251924;28;20474;-64
2023/05/03 15:20:48;;;;;;;13.17;11.93;;;17.00;96.60;;;;;;6243946;28;20480;-63
2023/05/03 15:23:52;;;;;;;13.30;11.17;;;17.00;96.60;;;;;;6241173;28;20489;-64
2023/05/03 15:26:56;;;;;;;13.33;12.13;;;17.10;96.70;;;;;;6247625;28;20822;-65
2023/05/03 15:29:59;;;;;;;12.07;11.07;;;17.20;96.70;;;;;;6251743;28;20486;-64
2023/05/03 15:33:04;;;;;;;11.37;10.37;;;17.20;96.00;;;;;;6238957;28;20476;-64
2023/05/03 15:36:08;;;;;;;11.30;10.40;;;17.20;96.10;;;;;;6236384;28;20481;-62
2023/05/03 15:39:11;;;;;;;11.90;10.87;;;17.20;96.00;;;;;;6251363;28;20516;-62
2023/05/03 15:42:15;;;;;;;10.60;9.70;;;17.20;95.70;;;;;;6251489;28;20451;-62
2023/05/03 15:45:19;;;;;;;12.33;11.20;;;17.20;95.70;;;;;;6251472;28;20471;-64
2023/05/03 15:48:24;;;;;;;12.10;11.10;;;17.20;95.70;;;;;;6251174;28;20454;-67
2023/05/03 15:51:28;;;;;;;11.27;10.13;;;17.20;96.00;;;;;;6251356;28;20443;-67
2023/05/03 15:54:31;;;;;;;13.23;11.30;;;17.20;96.10;;;;;;6246440;28;20553;-66
2023/05/03 15:57:34;;;;;;;15.87;11.97;;;17.20;96.30;;;;;;6242150;28;20482;-66